Time;durP1;ratioP1;P1;durP2;ratioP2;P2;SDS_P1;SDS_P2;PMS_P1;PMS_P2;Temp;Humidity;BMP_temperature;BMP_pressure;BME280_temperature;BME280_humidity;BME280_pressure;Samples;Min_cycle;Max_cycle;Signal;HPM_P1;HPM_P2
2022/09/07 00:06:30;;;;;;;0.20;0.03;;;22.90;99.90;;;;;;25919796;23;20180;-72
2022/09/07 00:16:34;;;;;;;0.20;0.00;;;22.80;99.90;;;;;;25918777;23;20180;-73
2022/09/07 00:26:40;;;;;;;0.20;0.00;;;22.70;99.90;;;;;;25919145;22;20169;-72
2022/09/07 00:36:44;;;;;;;0.20;0.00;;;22.70;99.90;;;;;;25918490;23;20184;-72
2022/09/07 00:46:49;;;;;;;0.20;0.00;;;22.80;99.90;;;;;;25917638;23;20161;-72
2022/09/07 00:56:53;;;;;;;0.20;0.00;;;22.80;99.90;;;;;;25915173;23;20205;-72
2022/09/07 01:06:59;;;;;;;0.20;0.10;;;22.90;99.90;;;;;;25916770;23;20185;-72
2022/09/07 01:17:10;;;;;;;0.20;0.10;;;22.80;99.90;;;;;;25916323;23;20348;-72
2022/09/07 01:27:57;;;;;;;0.20;0.00;;;22.80;99.90;;;;;;25914049;23;20157;-71
2022/09/07 01:38:09;;;;;;;0.20;0.00;;;22.70;99.90;;;;;;25913855;23;20206;-71
2022/09/07 01:48:17;;;;;;;0.20;0.00;;;22.60;99.90;;;;;;25925204;22;20183;-71
2022/09/07 01:58:25;;;;;;;0.20;0.00;;;22.60;99.90;;;;;;26042049;22;20187;-72
2022/09/07 02:08:36;;;;;;;0.20;0.00;;;22.70;99.90;;;;;;26013778;22;20184;-72
2022/09/07 02:18:45;;;;;;;0.20;0.00;;;22.80;99.90;;;;;;26041064;22;20191;-71
2022/09/07 02:28:50;;;;;;;0.20;0.10;;;23.20;99.90;;;;;;26041691;22;20221;-72
2022/09/07 02:38:54;;;;;;;0.20;0.00;;;23.40;99.90;;;;;;26042466;22;20164;-71
2022/09/07 02:49:11;;;;;;;0.20;0.00;;;23.40;99.90;;;;;;26039554;22;20385;-71
2022/09/07 02:59:27;;;;;;;0.20;0.00;;;23.40;99.90;;;;;;26012658;22;20240;-72
2022/09/07 03:09:37;;;;;;;0.20;0.00;;;23.10;99.90;;;;;;26013963;22;20180;-71
2022/09/07 03:19:41;;;;;;;0.20;0.00;;;23.10;99.90;;;;;;26018424;22;20159;-71
2022/09/07 03:29:46;;;;;;;0.20;0.00;;;23.00;99.90;;;;;;26048270;22;20184;-72
2022/09/07 03:39:49;;;;;;;0.20;0.00;;;23.20;99.90;;;;;;26046978;22;20168;-72
2022/09/07 03:49:55;;;;;;;0.20;0.00;;;23.20;99.90;;;;;;26046571;22;20227;-72
2022/09/07 03:59:59;;;;;;;0.20;0.00;;;23.20;99.90;;;;;;26047342;22;20160;-72
2022/09/07 04:10:04;;;;;;;0.20;0.00;;;23.00;99.90;;;;;;26047545;22;20203;-72
2022/09/07 04:20:09;;;;;;;0.20;0.00;;;22.70;99.90;;;;;;26045943;22;20149;-72
2022/09/07 04:30:14;;;;;;;0.20;0.00;;;22.50;99.90;;;;;;26017835;22;20191;-71
2022/09/07 04:40:18;;;;;;;0.20;0.00;;;22.40;99.90;;;;;;26044664;22;20172;-72
2022/09/07 04:50:24;;;;;;;0.20;0.00;;;22.20;99.90;;;;;;26044964;22;20203;-71
2022/09/07 05:00:28;;;;;;;0.20;0.00;;;22.40;99.90;;;;;;26042194;22;20157;-71
2022/09/07 05:10:33;;;;;;;0.20;0.00;;;22.20;99.90;;;;;;26016919;22;20188;-72
2022/09/07 05:20:37;;;;;;;0.20;0.00;;;22.30;99.90;;;;;;26016460;22;20163;-72
2022/09/07 05:30:42;;;;;;;0.20;0.00;;;22.10;99.90;;;;;;26043287;22;20183;-72
2022/09/07 05:41:11;;;;;;;0.20;0.00;;;22.20;99.90;;;;;;26014258;22;20168;-73
2022/09/07 05:51:16;;;;;;;0.20;0.00;;;22.10;99.90;;;;;;26038116;22;20215;-72
2022/09/07 06:01:20;;;;;;;0.20;0.00;;;22.20;99.90;;;;;;26038248;22;20167;-72
2022/09/07 06:11:26;;;;;;;0.20;0.00;;;22.50;99.90;;;;;;26012059;22;20265;-72
2022/09/07 06:21:30;;;;;;;0.20;0.00;;;22.90;99.90;;;;;;26038537;22;20164;-72
2022/09/07 06:31:35;;;;;;;0.20;0.10;;;23.40;99.90;;;;;;26038402;22;20187;-70
2022/09/07 06:41:59;;;;;;;0.20;0.00;;;23.80;99.90;;;;;;26009020;22;20175;-73
2022/09/07 06:52:05;;;;;;;0.20;0.00;;;25.00;99.90;;;;;;26035106;22;20219;-70
2022/09/07 07:02:11;;;;;;;0.20;0.00;;;25.50;99.90;;;;;;26041896;22;20156;-72
2022/09/07 07:12:17;;;;;;;0.20;0.00;;;25.70;99.90;;;;;;26015557;22;20184;-70
2022/09/07 07:22:19;;;;;;;0.20;0.00;;;26.00;99.90;;;;;;26041559;22;20168;-72
2022/09/07 07:32:45;;;;;;;0.20;0.00;;;26.30;99.90;;;;;;26017067;22;20184;-71
2022/09/07 07:42:49;;;;;;;0.20;0.00;;;26.40;99.90;;;;;;26042018;22;20222;-71
2022/09/07 07:52:54;;;;;;;0.20;0.00;;;26.70;99.90;;;;;;26041512;22;20219;-72
2022/09/07 08:03:18;;;;;;;0.20;0.00;;;26.70;99.90;;;;;;26043935;22;20168;-72
2022/09/07 08:13:23;;;;;;;0.20;0.00;;;27.00;99.90;;;;;;26038802;22;20188;-73
2022/09/07 08:23:27;;;;;;;0.20;0.00;;;27.20;99.90;;;;;;26042125;22;20164;-71
2022/09/07 08:33:34;;;;;;;0.20;0.00;;;27.30;99.90;;;;;;26010373;22;20192;-72
2022/09/07 08:43:49;;;;;;;0.20;0.00;;;27.50;99.90;;;;;;26039354;22;20152;-71
2022/09/07 08:53:54;;;;;;;0.20;0.00;;;27.50;99.90;;;;;;26011826;22;20227;-72
2022/09/07 09:03:58;;;;;;;0.20;0.00;;;27.80;99.90;;;;;;26037152;22;20149;-70
2022/09/07 09:14:28;;;;;;;0.20;0.00;;;28.00;99.90;;;;;;26037710;22;20271;-72
2022/09/07 09:24:37;;;;;;;0.20;0.00;;;27.40;99.90;;;;;;26034425;22;20194;-73
2022/09/07 09:35:01;;;;;;;0.20;0.00;;;28.00;99.90;;;;;;26038398;22;20180;-71
2022/09/07 09:45:13;;;;;;;0.20;0.00;;;28.40;99.90;;;;;;26040296;22;20194;-71
2022/09/07 09:55:31;;;;;;;0.20;0.00;;;28.20;99.90;;;;;;26038347;22;20199;-73
2022/09/07 10:05:41;;;;;;;0.20;0.00;;;28.10;99.90;;;;;;26012606;22;20179;-72
2022/09/07 10:15:51;;;;;;;0.20;0.00;;;28.80;99.90;;;;;;26011283;22;20260;-72
2022/09/07 10:25:55;;;;;;;0.20;0.00;;;29.20;99.90;;;;;;26010044;22;20167;-71
2022/09/07 10:36:07;;;;;;;0.20;0.00;;;29.10;99.90;;;;;;26046420;22;20232;-72
2022/09/07 10:46:25;;;;;;;0.20;0.00;;;29.30;99.90;;;;;;26045351;22;20179;-70
2022/09/07 10:57:03;;;;;;;0.20;0.00;;;30.20;99.90;;;;;;25916320;23;20207;-72
2022/09/07 11:07:20;;;;;;;0.20;0.00;;;30.00;99.90;;;;;;25917712;22;20188;-72
2022/09/07 11:17:29;;;;;;;0.20;0.00;;;30.00;99.90;;;;;;25915082;23;20176;-73
2022/09/07 11:27:39;;;;;;;0.20;0.00;;;30.60;99.90;;;;;;25917997;22;20172;-70
2022/09/07 11:37:53;;;;;;;0.20;0.00;;;30.60;99.90;;;;;;25914326;22;20244;-71
2022/09/07 11:48:01;;;;;;;0.20;0.00;;;30.80;99.90;;;;;;25907971;22;20192;-70
2022/09/07 11:58:25;;;;;;;0.20;0.00;;;31.30;99.90;;;;;;26042075;22;20190;-73
2022/09/07 12:08:43;;;;;;;0.20;0.00;;;31.80;99.90;;;;;;26043516;22;20188;-73
2022/09/07 12:19:27;;;;;;;0.20;0.00;;;31.70;99.90;;;;;;26044465;22;20184;-72
2022/09/07 12:29:31;;;;;;;0.20;0.00;;;31.90;99.90;;;;;;26044343;22;20164;-72
2022/09/07 12:39:38;;;;;;;0.20;0.00;;;32.20;99.90;;;;;;26013925;22;20180;-73
2022/09/07 12:50:07;;;;;;;0.20;0.00;;;33.50;99.90;;;;;;26041989;22;20196;-73
2022/09/07 13:00:18;;;;;;;0.20;0.00;;;32.10;99.90;;;;;;26013352;22;20184;-72
2022/09/07 13:10:30;;;;;;;0.20;0.00;;;32.30;99.90;;;;;;26043168;22;20199;-73
2022/09/07 13:20:35;;;;;;;0.20;0.00;;;33.10;99.90;;;;;;26014840;22;20583;-74
2022/09/07 13:30:58;;;;;;;0.20;0.00;;;31.50;99.90;;;;;;26040483;22;20152;-73
2022/09/07 13:41:07;;;;;;;0.20;0.00;;;30.60;99.90;;;;;;26040797;22;20176;-72
2022/09/07 13:51:17;;;;;;;0.20;0.00;;;32.30;99.90;;;;;;26011522;22;20196;-73
2022/09/07 14:01:25;;;;;;;0.20;0.00;;;34.70;99.90;;;;;;26041245;22;20152;-73
2022/09/07 14:11:37;;;;;;;0.20;0.00;;;34.70;99.90;;;;;;26038971;22;20219;-73
2022/09/07 14:21:53;;;;;;;0.20;0.00;;;36.10;99.90;;;;;;26008831;22;20239;-71
2022/09/07 14:31:57;;;;;;;0.20;0.00;;;34.00;99.90;;;;;;26037450;22;20192;-73
2022/09/07 14:42:04;;;;;;;0.20;0.00;;;34.30;99.90;;;;;;26038135;22;20311;-70
2022/09/07 14:52:15;;;;;;;0.20;0.00;;;31.90;99.90;;;;;;26033639;22;20200;-73
2022/09/07 15:02:38;;;;;;;0.20;0.00;;;30.60;99.90;;;;;;26037729;22;20167;-74
2022/09/07 15:12:43;;;;;;;0.20;0.00;;;30.60;99.90;;;;;;26005376;22;20196;-68
2022/09/07 15:22:48;;;;;;;0.20;0.00;;;30.20;99.90;;;;;;26012490;22;20168;-73
2022/09/07 15:32:52;;;;;;;0.20;0.00;;;30.60;99.90;;;;;;26012453;22;20188;-71
2022/09/07 15:42:57;;;;;;;0.20;0.00;;;32.40;99.90;;;;;;26016326;22;20255;-71
2022/09/07 15:53:02;;;;;;;0.20;0.00;;;30.60;99.90;;;;;;26012864;22;20199;-70
2022/09/07 16:03:08;;;;;;;0.20;0.00;;;30.40;99.90;;;;;;26041613;22;20175;-71
2022/09/07 16:13:12;;;;;;;0.20;0.00;;;30.20;99.90;;;;;;26041409;22;20192;-72
2022/09/07 16:23:20;;;;;;;0.20;0.00;;;30.30;99.90;;;;;;26014995;22;20160;-72
2022/09/07 16:33:24;;;;;;;0.20;0.00;;;30.10;99.90;;;;;;26040718;22;20187;-70
2022/09/07 16:43:39;;;;;;;0.20;0.00;;;29.80;99.90;;;;;;26038891;22;20251;-71
2022/09/07 16:53:43;;;;;;;0.20;0.00;;;29.80;99.90;;;;;;26040217;22;20263;-71
2022/09/07 17:03:49;;;;;;;0.20;0.00;;;29.60;99.90;;;;;;26008053;22;20300;-71
2022/09/07 17:13:55;;;;;;;0.20;0.00;;;29.00;99.90;;;;;;26006341;22;20188;-71
2022/09/07 17:24:01;;;;;;;0.20;0.00;;;28.50;99.90;;;;;;26036728;22;20164;-71
2022/09/07 17:34:07;;;;;;;0.20;0.00;;;28.40;99.90;;;;;;26035974;22;20271;-76
2022/09/07 17:44:12;;;;;;;0.20;0.00;;;28.30;99.90;;;;;;26038400;22;20166;-72
2022/09/07 17:54:17;;;;;;;0.20;0.00;;;28.10;99.90;;;;;;26031732;22;20258;-72
2022/09/07 18:04:23;;;;;;;0.20;0.00;;;28.10;99.90;;;;;;26012310;22;20430;-71
2022/09/07 18:14:28;;;;;;;0.20;0.00;;;27.90;99.90;;;;;;26036614;22;20180;-73
2022/09/07 18:24:34;;;;;;;0.20;0.00;;;27.80;99.90;;;;;;26009092;22;20152;-72
2022/09/07 18:34:39;;;;;;;0.20;0.00;;;27.60;99.90;;;;;;26035213;22;20188;-71
2022/09/07 18:44:45;;;;;;;0.20;0.00;;;27.70;99.90;;;;;;26037081;22;20217;-71
2022/09/07 18:55:10;;;;;;;0.20;0.00;;;27.60;99.90;;;;;;26041741;22;20287;-70
2022/09/07 19:05:15;;;;;;;0.20;0.00;;;27.60;99.90;;;;;;25992951;22;20578;-72
2022/09/07 19:15:39;;;;;;;0.20;0.00;;;27.50;99.90;;;;;;26044851;22;20223;-71
2022/09/07 19:25:44;;;;;;;0.20;0.00;;;27.50;99.90;;;;;;26043545;22;20168;-70
2022/09/07 19:35:48;;;;;;;0.20;0.00;;;27.50;99.90;;;;;;26042212;22;20191;-71
2022/09/07 19:45:53;;;;;;;0.20;0.00;;;27.30;99.90;;;;;;26013821;22;20255;-70
2022/09/07 19:56:03;;;;;;;0.20;0.00;;;27.00;99.90;;;;;;26042158;22;20199;-71
2022/09/07 20:06:10;;;;;;;0.20;0.00;;;26.80;99.90;;;;;;26042407;22;20540;-71
2022/09/07 20:16:15;;;;;;;0.20;0.00;;;26.40;99.90;;;;;;26042209;22;20195;-71
2022/09/07 20:26:22;;;;;;;0.20;0.00;;;26.40;99.90;;;;;;26015898;22;20161;-70
2022/09/07 20:36:26;;;;;;;0.20;0.00;;;26.20;99.90;;;;;;26041744;22;20172;-70
2022/09/07 20:46:31;;;;;;;0.20;0.00;;;26.00;99.90;;;;;;26013659;22;20179;-71
2022/09/07 20:56:35;;;;;;;0.20;0.00;;;26.30;99.90;;;;;;26038281;22;20196;-70
2022/09/07 21:06:41;;;;;;;0.20;0.00;;;26.10;99.90;;;;;;26037676;22;20194;-70
2022/09/07 21:16:44;;;;;;;0.20;0.00;;;26.00;99.90;;;;;;26038807;22;20195;-69
2022/09/07 21:26:50;;;;;;;0.20;0.00;;;25.90;99.90;;;;;;25986440;22;20188;-70
2022/09/07 21:36:54;;;;;;;0.20;0.00;;;25.80;99.90;;;;;;26039842;22;20175;-70
2022/09/07 21:46:59;;;;;;;0.20;0.00;;;25.70;99.90;;;;;;26037549;22;20160;-70
2022/09/07 21:57:03;;;;;;;0.20;0.00;;;25.70;99.90;;;;;;26043138;22;20204;-70
2022/09/07 22:07:08;;;;;;;0.20;0.00;;;25.60;99.90;;;;;;26042247;22;20188;-70
2022/09/07 22:17:13;;;;;;;0.20;0.08;;;25.50;99.90;;;;;;26042533;22;20188;-70
2022/09/07 22:27:18;;;;;;;0.20;0.00;;;25.50;99.90;;;;;;26041866;22;20175;-70
2022/09/07 22:37:21;;;;;;;0.20;0.00;;;25.30;99.90;;;;;;26013833;22;20180;-69
2022/09/07 22:47:27;;;;;;;0.20;0.00;;;25.40;99.90;;;;;;26040960;22;20160;-70
2022/09/07 22:57:31;;;;;;;0.20;0.00;;;25.50;99.90;;;;;;26040535;22;20180;-70
2022/09/07 23:07:36;;;;;;;0.20;0.00;;;25.40;99.90;;;;;;26011780;22;20199;-70
2022/09/07 23:17:40;;;;;;;0.20;0.00;;;25.60;99.90;;;;;;26013956;22;20187;-70
2022/09/07 23:27:45;;;;;;;0.20;0.00;;;25.60;99.90;;;;;;26041263;22;20167;-71
2022/09/07 23:37:49;;;;;;;0.20;0.05;;;25.60;99.90;;;;;;26043860;22;20180;-70
2022/09/07 23:47:54;;;;;;;0.20;0.00;;;25.60;99.90;;;;;;26020754;22;20188;-71
2022/09/07 23:57:58;;;;;;;0.20;0.10;;;25.70;99.90;;;;;;26045797;22;20179;-70
